Time;durP1;ratioP1;P1;durP2;ratioP2;P2;SDS_P1;SDS_P2;PMS_P1;PMS_P2;Temp;Humidity;BMP_temperature;BMP_pressure;BME280_temperature;BME280_humidity;BME280_pressure;Samples;Min_cycle;Max_cycle;Signal;HPM_P1;HPM_P2
2022/10/11 00:01:56;;;;;;;50.53;47.72;;;;;;;12.71;100.00;101877.91;6155892;23;20088;-81
2022/10/11 00:04:23;;;;;;;50.40;47.40;;;;;;;12.70;100.00;101868.25;6156030;23;20026;-81
2022/10/11 00:06:50;;;;;;;54.78;51.75;;;;;;;12.57;100.00;101867.13;6155302;23;20391;-80
2022/10/11 00:09:17;;;;;;;56.88;53.78;;;;;;;12.64;100.00;101871.69;6155740;23;20427;-80
2022/10/11 00:11:44;;;;;;;51.10;48.28;;;;;;;12.61;100.00;101868.38;6157207;23;20104;-80
2022/10/11 00:14:12;;;;;;;58.45;55.33;;;;;;;12.56;100.00;101862.00;6157212;23;20025;-82
2022/10/11 00:16:43;;;;;;;50.80;47.42;;;;;;;12.48;100.00;101859.47;6157455;23;20095;-81
2022/10/11 00:19:10;;;;;;;51.22;47.67;;;;;;;12.64;100.00;101853.84;6157231;23;20021;-80
2022/10/11 00:21:37;;;;;;;48.25;45.35;;;;;;;12.46;100.00;101851.63;6157379;23;20053;-80
2022/10/11 00:24:04;;;;;;;45.42;42.45;;;;;;;12.44;100.00;101844.88;6157520;23;20032;-80
2022/10/11 00:26:31;;;;;;;38.10;35.72;;;;;;;12.32;100.00;101849.88;6157222;23;20025;-81
2022/10/11 00:28:59;;;;;;;38.25;35.60;;;;;;;12.44;100.00;101844.88;6157474;23;20022;-80
2022/10/11 00:31:27;;;;;;;38.72;36.42;;;;;;;12.32;100.00;101847.22;6157374;23;20104;-81
2022/10/11 00:33:55;;;;;;;38.75;36.35;;;;;;;12.37;100.00;101855.44;6158086;23;20111;-81
2022/10/11 00:36:22;;;;;;;39.35;36.95;;;;;;;12.27;100.00;101846.94;6157228;23;20025;-81
2022/10/11 00:38:49;;;;;;;41.33;38.50;;;;;;;12.20;100.00;101854.06;6156796;23;20033;-80
2022/10/11 00:41:17;;;;;;;40.08;37.50;;;;;;;12.17;100.00;101844.59;6157163;23;20022;-81
2022/10/11 00:43:45;;;;;;;39.97;37.33;;;;;;;12.17;100.00;101841.94;6157153;23;20033;-80
2022/10/11 00:46:29;;;;;;;39.72;37.05;;;;;;;12.14;100.00;101839.66;6156982;23;20026;-82
2022/10/11 00:49:00;;;;;;;36.70;34.40;;;;;;;11.97;100.00;101844.38;6157414;23;20022;-82
2022/10/11 00:51:43;;;;;;;38.47;35.28;;;;;;;11.98;100.00;101834.53;6156916;23;20316;-79
2022/10/11 00:54:11;;;;;;;;;;;;;;;11.95;100.00;101832.25;6157212;23;20025;-83
2022/10/11 00:56:40;;;;;;;38.25;35.75;;;;;;;12.03;100.00;101830.31;6157209;23;19920;-82
2022/10/11 00:59:13;;;;;;;39.15;36.70;;;;;;;11.98;100.00;101830.06;6157432;23;20021;-81
2022/10/11 01:01:42;;;;;;;40.28;37.72;;;;;;;11.93;100.00;101831.63;6157520;23;20018;-82
2022/10/11 01:04:09;;;;;;;39.90;37.45;;;;;;;11.82;100.00;101825.75;6157063;23;20045;-81
2022/10/11 01:06:36;;;;;;;38.35;36.17;;;;;;;11.93;100.00;101827.13;6157354;23;20088;-81
2022/10/11 01:09:04;;;;;;;39.92;37.47;;;;;;;11.97;100.00;101819.59;6156827;23;20026;-81
2022/10/11 01:11:32;;;;;;;37.83;35.58;;;;;;;12.02;100.00;101822.53;6156641;23;20396;-83
2022/10/11 01:14:19;;;;;;;37.70;35.40;;;;;;;12.01;100.00;101811.06;6157099;23;20451;-81
2022/10/11 01:16:57;;;;;;;38.70;36.42;;;;;;;12.00;100.00;101816.56;6156918;23;20347;-81
2022/10/11 01:19:44;;;;;;;38.33;35.83;;;;;;;12.00;100.00;101814.72;6156726;23;20021;-80
2022/10/11 01:22:28;;;;;;;39.53;36.78;;;;;;;11.98;100.00;101814.09;6155899;23;20025;-80
2022/10/11 01:25:15;;;;;;;40.50;37.63;;;;;;;11.87;100.00;101806.59;6157027;23;20087;-80
2022/10/11 01:27:54;;;;;;;38.10;35.60;;;;;;;11.82;100.00;101808.94;6156388;23;20025;-80
2022/10/11 01:30:28;;;;;;;37.08;34.80;;;;;;;11.31;100.00;101807.09;6156686;23;20021;-80
2022/10/11 01:33:13;;;;;;;38.13;35.67;;;;;;;10.96;100.00;101816.63;6156583;23;20025;-80
2022/10/11 01:35:48;;;;;;;39.13;36.72;;;;;;;11.05;100.00;101807.56;6156881;23;20021;-81
2022/10/11 01:38:21;;;;;;;39.78;37.28;;;;;;;10.91;100.00;101803.03;6156436;23;20394;-80
2022/10/11 01:40:53;;;;;;;37.47;35.28;;;;;;;10.95;100.00;101801.66;6157093;23;20057;-81
2022/10/11 01:43:22;;;;;;;37.60;35.35;;;;;;;10.90;100.00;101806.72;6156907;23;20029;-81
2022/10/11 01:45:53;;;;;;;37.20;34.95;;;;;;;11.22;100.00;101802.88;6156937;23;20022;-84
2022/10/11 01:48:21;;;;;;;39.67;37.33;;;;;;;11.28;100.00;101796.81;6156115;23;20029;-81
2022/10/11 01:50:50;;;;;;;39.38;36.90;;;;;;;11.36;100.00;101793.25;6156379;23;20116;-82
2022/10/11 01:53:42;;;;;;;40.30;37.67;;;;;;;11.42;100.00;101801.31;6156263;23;20427;-82
2022/10/11 01:56:22;;;;;;;38.03;35.75;;;;;;;11.38;100.00;101800.03;6155916;23;20025;-83
2022/10/11 01:58:59;;;;;;;37.53;35.22;;;;;;;11.27;100.00;101791.69;6156291;23;20092;-84
2022/10/11 02:01:40;;;;;;;41.08;38.13;;;;;;;11.26;100.00;101793.53;6141910;23;20029;-81
2022/10/11 02:04:37;;;;;;;38.80;36.60;;;;;;;11.42;100.00;101798.66;6156097;23;20018;-82
2022/10/11 02:07:09;;;;;;;38.72;36.38;;;;;;;11.48;100.00;101798.94;6155833;23;20017;-81
2022/10/11 02:09:44;;;;;;;38.60;36.30;;;;;;;11.33;100.00;101789.13;6156697;23;20041;-80
2022/10/11 02:12:20;;;;;;;36.95;34.65;;;;;;;11.45;100.00;101792.13;6156264;23;20022;-80
2022/10/11 02:15:00;;;;;;;;;;;;;;;;;;;;;
2022/10/11 02:17:33;;;;;;;36.85;34.55;;;;;;;11.34;100.00;101793.41;6155744;23;20105;-80
2022/10/11 02:20:11;;;;;;;37.45;35.28;;;;;;;11.31;100.00;101791.13;6156159;23;20018;-80
2022/10/11 02:22:44;;;;;;;39.30;36.60;;;;;;;11.36;100.00;101783.44;6156368;23;20092;-80
2022/10/11 02:25:16;;;;;;;39.78;37.30;;;;;;;11.43;100.00;101791.50;6155817;23;20017;-83
2022/10/11 02:27:53;;;;;;;38.72;36.17;;;;;;;11.37;100.00;101789.56;6156216;23;20083;-80
2022/10/11 02:30:25;;;;;;;39.53;36.90;;;;;;;11.04;100.00;101783.81;6156236;23;20021;-81
2022/10/11 02:33:02;;;;;;;41.40;38.15;;;;;;;11.07;100.00;101786.09;6155483;23;20375;-81
2022/10/11 02:35:51;;;;;;;39.17;36.88;;;;;;;11.03;100.00;101790.13;6156233;23;20025;-80
2022/10/11 02:38:25;;;;;;;40.22;37.53;;;;;;;11.04;100.00;101784.63;6155706;23;20103;-81
2022/10/11 02:41:11;;;;;;;42.53;40.03;;;;;;;11.49;100.00;101784.59;6156493;23;20021;-81
2022/10/11 02:43:51;;;;;;;38.00;35.50;;;;;;;11.78;100.00;101775.75;6156098;23;20080;-81
2022/10/11 02:46:29;;;;;;;37.35;35.25;;;;;;;11.66;100.00;101781.53;6155827;23;20017;-81
2022/10/11 02:49:02;;;;;;;39.15;36.95;;;;;;;11.68;100.00;101778.72;6155757;23;20104;-80
2022/10/11 02:51:34;;;;;;;40.72;38.20;;;;;;;11.74;100.00;101777.13;6155343;23;20021;-80
2022/10/11 02:54:01;;;;;;;37.05;34.67;;;;;;;11.65;100.00;101795.88;6155782;23;20044;-81
2022/10/11 02:56:28;;;;;;;36.92;34.63;;;;;;;11.62;100.00;101784.78;6155763;23;20028;-81
2022/10/11 02:58:58;;;;;;;37.03;34.83;;;;;;;11.69;100.00;101777.69;6156159;23;20089;-80
2022/10/11 03:01:32;;;;;;;50.83;47.83;;;;;;;11.77;100.00;101772.25;6155594;23;20438;-80
2022/10/11 03:04:02;;;;;;;54.45;51.25;;;;;;;11.78;100.00;101770.41;6156440;23;20542;-82
2022/10/11 03:06:36;;;;;;;58.45;54.97;;;;;;;11.73;100.00;101773.63;6155004;23;20025;-80
2022/10/11 03:09:08;;;;;;;55.88;52.78;;;;;;;11.87;100.00;101762.16;6155554;23;20096;-79
2022/10/11 03:11:36;;;;;;;49.55;46.67;;;;;;;12.01;100.00;101765.78;6156176;23;20091;-80
2022/10/11 03:14:24;;;;;;;54.35;51.17;;;;;;;11.91;100.00;101763.41;6155648;23;20013;-80
2022/10/11 03:16:55;;;;;;;55.95;52.58;;;;;;;11.77;100.00;101769.59;6155478;23;20017;-81
2022/10/11 03:19:24;;;;;;;50.25;46.83;;;;;;;11.76;100.00;101765.28;6155275;23;20017;-79
2022/10/11 03:22:03;;;;;;;60.35;56.75;;;;;;;11.83;100.00;101763.53;6155678;23;20021;-80
2022/10/11 03:24:33;;;;;;;54.53;51.33;;;;;;;11.89;100.00;101765.47;6155501;23;20025;-81
2022/10/11 03:27:06;;;;;;;54.75;51.35;;;;;;;11.50;100.00;101765.81;6155708;23;20057;-81
2022/10/11 03:29:35;;;;;;;54.22;50.72;;;;;;;11.48;100.00;101767.00;6156003;23;20021;-82
2022/10/11 03:32:06;;;;;;;52.35;48.88;;;;;;;11.48;100.00;101767.81;6155284;23;20138;-80
2022/10/11 03:34:46;;;;;;;58.20;53.85;;;;;;;11.36;100.00;101761.34;6155682;23;20017;-81
2022/10/11 03:37:24;;;;;;;44.45;41.58;;;;;;;10.84;100.00;101764.94;6155137;23;20018;-80
2022/10/11 03:39:54;;;;;;;49.35;46.05;;;;;;;11.11;100.00;101758.16;6155812;23;20502;-81
2022/10/11 03:42:37;;;;;;;50.88;47.47;;;;;;;10.92;100.00;101762.16;6155181;23;20034;-81
2022/10/11 03:45:08;;;;;;;;;;;;;;;11.15;100.00;101764.75;6157602;23;20025;-81
2022/10/11 03:47:36;;;;;;;43.28;40.17;;;;;;;11.15;100.00;101754.09;6156936;23;19936;-80
2022/10/11 03:50:13;;;;;;;47.58;44.20;;;;;;;11.37;100.00;101749.66;6157152;23;20021;-80
2022/10/11 03:52:40;;;;;;;50.08;46.80;;;;;;;11.03;100.00;101760.91;6156021;23;20025;-80
2022/10/11 03:55:14;;;;;;;51.30;47.90;;;;;;;11.10;100.00;101756.47;6157190;23;20419;-81
2022/10/11 03:57:42;;;;;;;49.97;46.58;;;;;;;11.30;100.00;101746.94;6157449;23;20464;-81
2022/10/11 04:00:14;;;;;;;45.10;41.75;;;;;;;11.28;100.00;101748.13;6157236;23;20022;-81
2022/10/11 04:02:44;;;;;;;49.40;45.28;;;;;;;10.69;100.00;101747.13;6156895;23;20017;-80
2022/10/11 04:05:17;;;;;;;54.33;48.35;;;;;;;10.72;100.00;101752.06;6157853;23;20091;-82
2022/10/11 04:07:58;;;;;;;56.08;50.20;;;;;;;10.88;100.00;101755.56;6157381;23;20100;-81
2022/10/11 04:10:32;;;;;;;48.67;44.47;;;;;;;10.88;100.00;101751.06;6157213;23;20121;-82
2022/10/11 04:13:02;;;;;;;54.72;49.95;;;;;;;10.74;100.00;101749.22;6158392;23;20025;-82
2022/10/11 04:15:37;;;;;;;48.30;45.00;;;;;;;10.82;100.00;101743.00;6157484;23;20104;-82
2022/10/11 04:18:14;;;;;;;49.92;46.17;;;;;;;11.01;100.00;101755.75;6157453;23;20096;-82
2022/10/11 04:20:47;;;;;;;45.33;41.83;;;;;;;10.95;100.00;101756.47;6156929;23;20052;-84
2022/10/11 04:23:17;;;;;;;42.53;39.60;;;;;;;10.83;100.00;101742.81;6157586;23;20026;-82
2022/10/11 04:26:02;;;;;;;41.92;38.80;;;;;;;10.89;100.00;101744.78;6157519;23;20518;-82
2022/10/11 04:28:33;;;;;;;44.60;41.40;;;;;;;10.91;100.00;101753.38;6157652;23;20032;-82
2022/10/11 04:31:08;;;;;;;40.88;37.75;;;;;;;10.94;100.00;101753.00;6157494;23;20100;-82
2022/10/11 04:33:42;;;;;;;41.40;38.28;;;;;;;10.56;100.00;101752.25;6159122;23;20084;-81
2022/10/11 04:36:16;;;;;;;38.20;35.30;;;;;;;10.62;100.00;101746.22;6162402;23;20031;-81
2022/10/11 04:38:43;;;;;;;43.53;40.45;;;;;;;10.76;100.00;101744.56;6161763;23;20338;-85
2022/10/11 04:41:11;;;;;;;45.13;41.92;;;;;;;11.03;100.00;101747.59;6160116;23;20093;-81
2022/10/11 04:43:41;;;;;;;40.65;37.28;;;;;;;10.95;100.00;101749.34;6157509;23;20446;-81
2022/10/11 04:46:10;;;;;;;36.58;33.40;;;;;;;10.99;100.00;101753.28;6156144;23;20462;-80
2022/10/11 04:48:38;;;;;;;43.03;39.42;;;;;;;11.01;100.00;101753.09;6157688;23;20029;-81
2022/10/11 04:51:19;;;;;;;41.17;37.97;;;;;;;10.64;100.00;101757.47;6157957;23;20017;-80
2022/10/11 04:53:51;;;;;;;40.30;37.15;;;;;;;10.56;100.00;101760.22;6156855;23;20022;-80
2022/10/11 04:56:23;;;;;;;40.80;37.53;;;;;;;10.82;100.00;101767.75;6156974;23;20017;-80
2022/10/11 04:58:55;;;;;;;39.40;36.33;;;;;;;10.86;100.00;101771.72;6157925;23;20018;-80
2022/10/11 05:01:22;;;;;;;40.83;37.83;;;;;;;10.93;100.00;101764.66;6157353;23;20028;-80
2022/10/11 05:03:49;;;;;;;40.33;37.35;;;;;;;11.00;100.00;101762.91;6158557;23;20084;-80
2022/10/11 05:06:27;;;;;;;42.08;38.55;;;;;;;10.96;100.00;101764.28;6157209;23;20088;-79
2022/10/11 05:08:57;;;;;;;39.55;36.85;;;;;;;10.53;100.00;101758.75;6156098;23;20022;-80
2022/10/11 05:11:29;;;;;;;44.20;40.90;;;;;;;10.92;100.00;101764.81;6157756;23;20049;-79
2022/10/11 05:13:56;;;;;;;43.90;40.63;;;;;;;11.41;100.00;101764.28;6156813;23;20033;-80
2022/10/11 05:16:29;;;;;;;42.00;38.63;;;;;;;11.50;100.00;101759.63;6156397;23;20060;-79
2022/10/11 05:19:01;;;;;;;42.72;39.28;;;;;;;11.84;100.00;101759.03;6158661;23;20490;-80
2022/10/11 05:21:32;;;;;;;44.70;41.85;;;;;;;12.05;100.00;101767.06;6157869;23;20018;-79
2022/10/11 05:24:09;;;;;;;48.65;44.83;;;;;;;12.15;100.00;101761.41;6157141;23;20021;-80
2022/10/11 05:26:47;;;;;;;41.08;38.30;;;;;;;12.12;100.00;101769.78;6156007;23;20026;-81
2022/10/11 05:29:17;;;;;;;42.78;39.78;;;;;;;12.01;100.00;101765.78;6153707;23;20368;-79
2022/10/11 05:34:38;;;;;;;42.08;39.20;;;;;;;12.06;100.00;101766.03;6153448;23;20029;-80
2022/10/11 05:37:09;;;;;;;42.97;40.05;;;;;;;12.23;100.00;101769.28;6156791;23;20057;-80
2022/10/11 05:39:38;;;;;;;40.88;38.10;;;;;;;12.19;100.00;101760.00;6157925;23;20026;-79
2022/10/11 05:42:08;;;;;;;42.33;39.33;;;;;;;12.31;100.00;101769.13;6157036;23;20025;-79
2022/10/11 05:44:35;;;;;;;46.85;43.15;;;;;;;12.29;100.00;101768.50;6156406;23;20096;-79
2022/10/11 05:47:03;;;;;;;51.17;46.40;;;;;;;12.35;100.00;101770.41;6158015;23;20021;-79
2022/10/11 05:49:34;;;;;;;57.03;51.30;;;;;;;12.39;100.00;101765.50;6156501;23;20033;-79
2022/10/11 05:52:09;;;;;;;57.88;52.08;;;;;;;12.72;100.00;101764.94;6156990;23;20045;-79
2022/10/11 05:54:38;;;;;;;51.75;46.83;;;;;;;12.86;100.00;101768.50;6156618;23;20024;-79
2022/10/11 05:57:32;;;;;;;53.28;48.08;;;;;;;13.03;100.00;101768.00;6156353;23;20088;-79
2022/10/11 06:00:04;;;;;;;48.63;44.70;;;;;;;13.20;100.00;101763.19;6157768;23;20038;-79
2022/10/11 06:02:44;;;;;;;42.73;39.70;;;;;;;13.40;100.00;101767.81;6156857;23;20021;-79
2022/10/11 06:05:12;;;;;;;44.30;40.92;;;;;;;13.41;100.00;101767.63;6156420;23;20033;-80
2022/10/11 06:07:43;;;;;;;58.03;54.42;;;;;;;13.55;100.00;101765.81;6156754;23;20045;-80
2022/10/11 06:10:16;;;;;;;62.22;58.42;;;;;;;13.79;100.00;101775.13;6156959;23;20041;-79
2022/10/11 06:12:46;;;;;;;57.45;54.35;;;;;;;13.84;100.00;101772.69;6156188;23;20022;-79
2022/10/11 06:15:15;;;;;;;55.35;52.30;;;;;;;13.96;100.00;101771.06;6156354;23;20014;-80
2022/10/11 06:18:00;;;;;;;53.70;50.70;;;;;;;14.27;100.00;101771.50;6051017;23;20041;-80
2022/10/11 06:20:31;;;;;;;47.60;44.85;;;;;;;14.32;100.00;101767.22;6126712;23;20080;-79
2022/10/11 06:23:00;;;;;;;48.35;45.40;;;;;;;14.47;100.00;101771.53;6126681;23;20022;-80
2022/10/11 06:25:35;;;;;;;46.95;44.25;;;;;;;14.52;100.00;101758.38;6084477;23;20022;-79
2022/10/11 06:28:02;;;;;;;46.05;43.25;;;;;;;14.58;100.00;101760.22;6105424;23;20030;-79
2022/10/11 06:30:29;;;;;;;50.40;47.70;;;;;;;14.67;100.00;101769.69;6126475;23;20103;-79
2022/10/11 06:32:59;;;;;;;50.03;47.05;;;;;;;14.81;100.00;101765.97;6126848;23;20018;-79
2022/10/11 06:35:34;;;;;;;42.92;40.40;;;;;;;14.73;100.00;101758.16;6127193;23;20097;-80
2022/10/11 06:38:07;;;;;;;36.75;34.50;;;;;;;15.06;100.00;101758.06;6126712;23;20041;-81
2022/10/11 06:40:40;;;;;;;;;;;;;;;14.93;100.00;101770.69;6126813;23;20022;-79
2022/10/11 06:43:09;;;;;;;53.03;49.92;;;;;;;15.02;100.00;101767.56;6126599;23;20230;-80
2022/10/11 06:45:37;;;;;;;59.28;55.40;;;;;;;15.26;100.00;101779.44;6126334;23;20030;-79
2022/10/11 06:48:07;;;;;;;69.05;62.40;;;;;;;15.32;100.00;101788.47;6126075;23;20026;-79
2022/10/11 06:50:38;;;;;;;61.92;55.75;;;;;;;15.45;100.00;101777.72;6126136;23;20120;-79
2022/10/11 06:53:09;;;;;;;55.45;50.40;;;;;;;15.41;100.00;101781.03;6125573;23;20022;-79
2022/10/11 06:55:36;;;;;;;54.95;51.28;;;;;;;15.47;100.00;101783.69;6127292;23;20018;-79
2022/10/11 06:58:04;;;;;;;44.78;42.33;;;;;;;15.63;100.00;101787.72;6126346;23;20503;-79
2022/10/11 07:00:33;;;;;;;45.58;43.00;;;;;;;15.82;100.00;101779.84;6125477;23;20104;-80
2022/10/11 07:03:02;;;;;;;46.83;43.03;;;;;;;15.85;100.00;101782.91;6126028;23;20436;-79
2022/10/11 07:05:33;;;;;;;48.03;45.03;;;;;;;16.29;100.00;101788.41;6125471;23;20053;-79
2022/10/11 07:08:03;;;;;;;42.03;39.72;;;;;;;16.23;100.00;101785.53;6125084;23;20247;-80
2022/10/11 07:10:35;;;;;;;35.05;32.78;;;;;;;16.38;100.00;101779.03;6124813;23;20018;-80
2022/10/11 07:13:08;;;;;;;34.88;32.58;;;;;;;16.42;100.00;101794.47;6123992;23;20026;-80
2022/10/11 07:15:40;;;;;;;48.70;45.40;;;;;;;16.36;100.00;101773.88;6124316;23;20407;-80
2022/10/11 07:18:08;;;;;;;51.43;47.57;;;;;;;16.37;100.00;101782.75;6123991;23;20028;-80
2022/10/11 07:20:37;;;;;;;50.42;47.72;;;;;;;16.30;100.00;101782.81;6125064;23;20054;-80
2022/10/11 07:23:05;;;;;;;49.05;46.22;;;;;;;16.31;100.00;101775.56;6124872;23;20386;-80
2022/10/11 07:25:44;;;;;;;312.58;144.52;;;;;;;16.75;100.00;101771.91;6126179;23;20033;-80
2022/10/11 07:28:14;;;;;;;525.13;261.15;;;;;;;17.04;100.00;101770.41;6126392;23;20025;-80
2022/10/11 07:30:43;;;;;;;481.85;220.48;;;;;;;17.06;100.00;101764.81;6126040;23;20038;-79
2022/10/11 07:33:10;;;;;;;266.08;125.88;;;;;;;16.98;100.00;101778.53;6125260;23;20030;-79
2022/10/11 07:35:41;;;;;;;282.98;124.57;;;;;;;17.34;100.00;101775.84;6125984;23;20092;-78
2022/10/11 07:38:14;;;;;;;114.45;68.63;;;;;;;17.48;100.00;101776.47;6125236;23;20026;-79
2022/10/11 07:40:48;;;;;;;50.78;45.47;;;;;;;17.14;100.00;101777.94;6125680;23;20026;-79
2022/10/11 07:43:25;;;;;;;49.63;44.42;;;;;;;17.50;100.00;101781.63;5986045;23;20475;-79
2022/10/11 07:45:55;;;;;;;47.38;43.45;;;;;;;17.65;100.00;101775.88;6117616;23;20032;-79
2022/10/11 07:48:23;;;;;;;44.08;40.47;;;;;;;17.74;100.00;101780.69;6125451;23;20020;-79
2022/10/11 07:50:58;;;;;;;51.20;46.65;;;;;;;17.91;100.00;101785.44;6125774;23;20022;-78
2022/10/11 07:53:27;;;;;;;44.08;40.88;;;;;;;17.90;100.00;101791.88;6125503;23;20088;-79
2022/10/11 07:56:00;;;;;;;39.63;36.83;;;;;;;17.94;100.00;101783.13;6125017;23;20021;-81
2022/10/11 07:58:34;;;;;;;44.65;41.03;;;;;;;17.76;100.00;101781.28;6125825;23;20024;-80
2022/10/11 08:01:03;;;;;;;41.15;38.03;;;;;;;17.31;100.00;101780.84;6125971;23;20018;-79
2022/10/11 08:03:31;;;;;;;43.47;39.97;;;;;;;18.52;100.00;101781.63;6125376;23;20081;-80
2022/10/11 08:06:09;;;;;;;47.10;41.97;;;;;;;18.21;100.00;101786.22;6125085;23;20097;-79
2022/10/11 08:08:40;;;;;;;43.90;40.35;;;;;;;19.12;100.00;101777.84;6125982;23;20026;-81
2022/10/11 08:11:10;;;;;;;43.20;39.42;;;;;;;19.52;100.00;101774.38;6126069;23;20037;-83
2022/10/11 08:13:38;;;;;;;39.50;35.80;;;;;;;19.79;100.00;101767.34;6125681;23;20053;-79
2022/10/11 08:16:17;;;;;;;38.35;35.42;;;;;;;19.90;100.00;101774.53;6126298;23;20053;-79
2022/10/11 08:18:45;;;;;;;46.17;42.60;;;;;;;20.34;100.00;101776.66;6125844;23;20025;-79
2022/10/11 08:21:25;;;;;;;;;;;;;;;;;;;;;
2022/10/11 08:23:54;;;;;;;41.40;38.72;;;;;;;20.51;100.00;101773.91;6125247;23;20400;-79
2022/10/11 08:26:23;;;;;;;43.08;40.47;;;;;;;20.43;100.00;101767.06;6127170;23;20100;-80
2022/10/11 08:28:52;;;;;;;46.10;43.05;;;;;;;20.11;100.00;101758.72;6125612;23;20018;-79
2022/10/11 08:31:36;;;;;;;82.95;60.95;;;;;;;20.86;100.00;101748.56;6126999;23;20100;-79
2022/10/11 08:34:03;;;;;;;91.60;60.13;;;;;;;21.19;100.00;101744.94;6127599;23;20018;-80
2022/10/11 08:36:30;;;;;;;57.63;50.90;;;;;;;21.00;100.00;101745.25;6127581;23;20510;-80
2022/10/11 08:38:57;;;;;;;47.72;43.78;;;;;;;20.74;100.00;101745.97;6127701;23;20428;-79
2022/10/11 08:41:34;;;;;;;44.72;41.50;;;;;;;20.09;100.00;101755.44;6128062;23;20502;-79
2022/10/11 08:44:18;;;;;;;43.55;40.20;;;;;;;20.77;100.00;101746.28;6128558;23;20096;-79
2022/10/11 08:46:49;;;;;;;34.63;31.98;;;;;;;21.20;100.00;101736.56;6127844;23;20018;-80
2022/10/11 08:49:24;;;;;;;33.45;31.05;;;;;;;21.00;100.00;101747.13;6127265;23;20018;-80
2022/10/11 08:51:58;;;;;;;33.80;31.63;;;;;;;20.47;100.00;101752.03;6127902;23;20303;-79
2022/10/11 08:54:39;;;;;;;42.65;39.65;;;;;;;20.56;100.00;101745.16;6127940;23;20029;-78
2022/10/11 08:57:12;;;;;;;128.73;80.88;;;;;;;20.49;100.00;101749.91;6127431;23;20026;-79
2022/10/11 08:59:47;;;;;;;71.40;56.70;;;;;;;20.44;100.00;101749.00;6127211;23;20029;-78
2022/10/11 09:02:27;;;;;;;102.07;76.95;;;;;;;20.04;100.00;101756.19;6126155;23;20074;-78
2022/10/11 09:04:56;;;;;;;49.47;45.70;;;;;;;19.98;100.00;101753.66;6127401;23;20018;-80
2022/10/11 09:07:35;;;;;;;48.67;45.33;;;;;;;20.24;100.00;101758.44;6127339;23;20018;-80
2022/10/11 09:10:26;;;;;;;52.38;48.58;;;;;;;20.14;100.00;101752.84;6127323;23;20101;-79
2022/10/11 09:13:06;;;;;;;42.50;39.08;;;;;;;19.47;100.00;101753.50;6126957;23;20030;-79
2022/10/11 09:15:45;;;;;;;52.40;48.25;;;;;;;19.55;100.00;101755.84;6127181;23;20028;-80
2022/10/11 09:18:51;;;;;;;45.67;42.90;;;;;;;19.38;100.00;101754.94;6126307;23;20113;-80
2022/10/11 09:21:40;;;;;;;43.63;40.42;;;;;;;19.30;100.00;101750.75;6113894;23;20052;-79
2022/10/11 09:24:31;;;;;;;45.08;41.65;;;;;;;19.66;100.00;101762.25;6124643;23;20026;-78
2022/10/11 09:27:02;;;;;;;61.45;55.55;;;;;;;20.08;100.00;101753.81;6126738;23;20451;-78
2022/10/11 09:29:47;;;;;;;61.38;55.15;;;;;;;20.40;100.00;101766.75;6126275;23;20096;-79
2022/10/11 09:32:19;;;;;;;55.35;51.33;;;;;;;20.38;100.00;101755.38;6124449;23;20052;-80
2022/10/11 09:34:57;;;;;;;75.97;61.50;;;;;;;20.34;100.00;101758.56;6126599;23;20048;-79
2022/10/11 09:37:32;;;;;;;36.95;34.00;;;;;;;20.17;100.00;101756.94;6127876;23;20339;-80
2022/10/11 09:40:14;;;;;;;40.38;36.50;;;;;;;20.71;100.00;101752.66;6128400;23;20090;-79
2022/10/11 09:42:44;;;;;;;36.53;33.88;;;;;;;21.21;100.00;101751.72;6125948;23;20018;-79
2022/10/11 09:45:23;;;;;;;40.40;36.35;;;;;;;21.26;100.00;101748.25;6125644;23;20026;-80
2022/10/11 09:47:58;;;;;;;38.97;35.78;;;;;;;21.44;100.00;101747.13;6127048;23;20022;-80
2022/10/11 09:50:34;;;;;;;37.97;34.67;;;;;;;21.54;100.00;101741.00;6128576;23;20017;-79
2022/10/11 09:53:06;;;;;;;33.67;30.80;;;;;;;21.55;100.00;101740.75;6126604;23;20032;-78
2022/10/11 09:55:37;;;;;;;34.60;32.13;;;;;;;21.56;100.00;101736.97;6128175;23;20447;-79
2022/10/11 09:58:06;;;;;;;38.53;35.08;;;;;;;21.85;100.00;101747.53;6127789;23;20018;-82
2022/10/11 10:00:40;;;;;;;36.17;33.25;;;;;;;21.91;100.00;101739.22;6127504;23;20025;-79
2022/10/11 10:03:27;;;;;;;32.40;30.13;;;;;;;22.12;100.00;101737.50;6127326;23;20018;-79
2022/10/11 10:06:05;;;;;;;33.25;31.05;;;;;;;21.77;100.00;101729.06;6125176;23;20058;-79
2022/10/11 10:08:36;;;;;;;33.97;31.60;;;;;;;22.16;100.00;101733.22;6125882;23;20443;-79
2022/10/11 10:11:11;;;;;;;33.97;31.58;;;;;;;21.65;100.00;101726.53;6127768;23;20431;-79
2022/10/11 10:13:56;;;;;;;34.80;32.15;;;;;;;21.77;100.00;101732.59;6127207;23;20022;-79
2022/10/11 10:16:30;;;;;;;35.65;33.28;;;;;;;22.03;100.00;101728.22;6125860;23;20022;-79
2022/10/11 10:18:59;;;;;;;37.03;34.00;;;;;;;21.78;100.00;101726.09;6127154;23;20029;-80
2022/10/11 10:21:32;;;;;;;35.35;32.80;;;;;;;21.93;100.00;101720.81;6126607;23;20025;-79
2022/10/11 10:24:05;;;;;;;39.75;35.97;;;;;;;22.02;100.00;101710.34;6129025;23;20090;-80
2022/10/11 10:26:35;;;;;;;36.03;33.65;;;;;;;21.99;100.00;101723.59;6128447;23;20025;-79
2022/10/11 10:29:19;;;;;;;36.20;33.65;;;;;;;22.08;100.00;101712.03;6127761;23;20030;-78
2022/10/11 10:32:07;;;;;;;;;;;;;;;;;;;;;
2022/10/11 10:34:40;;;;;;;38.63;35.70;;;;;;;22.74;100.00;101702.72;6128610;23;20093;-78
2022/10/11 10:37:23;;;;;;;37.55;34.53;;;;;;;23.17;100.00;101692.63;6127450;23;20022;-79
2022/10/11 10:40:01;;;;;;;51.63;40.35;;;;;;;22.86;100.00;101695.19;6125563;23;20486;-80
2022/10/11 10:42:31;;;;;;;39.63;36.00;;;;;;;22.86;100.00;101685.16;6124845;23;20037;-79
2022/10/11 10:44:58;;;;;;;38.15;34.50;;;;;;;22.36;100.00;101691.97;6126095;23;20029;-79
2022/10/11 10:48:00;;;;;;;34.72;32.22;;;;;;;22.18;100.00;101700.50;6126881;23;20404;-80
2022/10/11 10:50:56;;;;;;;39.53;36.33;;;;;;;22.40;100.00;101690.38;6126132;23;20435;-79
2022/10/11 10:53:35;;;;;;;35.78;32.90;;;;;;;21.91;100.00;101690.53;6127590;23;20018;-79
2022/10/11 10:56:11;;;;;;;39.10;36.00;;;;;;;20.87;100.00;101686.19;6128418;23;20383;-79
2022/10/11 10:58:59;;;;;;;40.78;37.22;;;;;;;20.97;100.00;101685.53;6127858;23;20022;-79
2022/10/11 11:01:29;;;;;;;41.08;37.42;;;;;;;21.43;100.00;101683.34;6126713;23;20029;-79
2022/10/11 11:04:09;;;;;;;39.65;36.55;;;;;;;21.00;100.00;101680.44;6125434;23;20309;-78
2022/10/11 11:06:52;;;;;;;38.45;35.20;;;;;;;20.73;100.00;101679.56;6125273;23;20025;-79
2022/10/11 11:09:37;;;;;;;39.47;35.85;;;;;;;20.35;100.00;101676.56;6129156;23;20026;-79
2022/10/11 11:12:29;;;;;;;41.78;38.58;;;;;;;20.03;100.00;101678.22;6125712;23;20088;-80
2022/10/11 11:15:04;;;;;;;42.78;38.65;;;;;;;19.93;100.00;101675.38;6126344;23;20020;-79
2022/10/11 11:17:59;;;;;;;50.63;47.13;;;;;;;19.84;100.00;101673.09;6125700;23;20444;-79
2022/10/11 11:21:02;;;;;;;;;;;;;;;;;;;;;
2022/10/11 11:23:42;;;;;;;46.63;42.70;;;;;;;20.26;100.00;101667.25;6123528;23;20105;-81
2022/10/11 11:26:28;;;;;;;44.38;40.65;;;;;;;20.20;100.00;101662.84;6127211;23;20387;-79
2022/10/11 11:29:13;;;;;;;46.35;42.67;;;;;;;20.02;100.00;101663.94;6132064;23;20032;-79
2022/10/11 11:32:00;;;;;;;55.13;51.88;;;;;;;19.99;100.00;101653.66;6126543;23;20026;-81
2022/10/11 11:34:37;;;;;;;41.75;38.40;;;;;;;19.76;100.00;101667.28;6125618;23;20455;-79
2022/10/11 11:37:22;;;;;;;39.20;35.85;;;;;;;20.11;100.00;101659.75;6129617;23;20017;-80
2022/10/11 11:39:54;;;;;;;35.78;32.88;;;;;;;19.96;100.00;101656.03;6131423;23;20041;-80
2022/10/11 11:42:34;;;;;;;37.78;33.75;;;;;;;19.96;100.00;101670.31;6128584;23;20026;-79